Whiteman Air Force Base, Missouri
Current Conditions -  °F | °C
As of 10:58 AM on Thursday 23 Oct 2014 (Local Time) from KSZL Reporting Station
Broken Clouds Broken Clouds  
Wind Chill: 59°   Ceiling: 2300
Heat Index: 59°   Visibility: 10mi
Dew Point: 52°   Wind: 9mph
Humidity: 78%   Direction: 210°SSW
Pressure: 30.14"   Gusts: NA
Location:  38.7318°N, 93.5731°W
Report Text: KSZL 231558Z 21008KT 10SM BKN023 15/11 A3014 RMK AO2A SLP208 T01500112 $
Loading
Personal Weather Stations






























Interactive Weather Map
Tropical Storm Tracking
New forecast layout! Learn more

10-Day Weather Forecast

Advertisements
Track Severe Weather on mobile